sensor_id;sensor_type;location;lat;lon;timestamp;P1;P2;P0
49644;PMS5003;36494;50.730;-1.932;2023-09-12T00:01:26;12;11;
49644;PMS5003;36494;50.730;-1.932;2023-09-12T00:03:51;14;14;
49644;PMS5003;36494;50.730;-1.932;2023-09-12T00:06:17;14;13;
49644;PMS5003;36494;50.730;-1.932;2023-09-12T00:08:42;11;11;
49644;PMS5003;36494;50.730;-1.932;2023-09-12T00:11:09;14;13;
49644;PMS5003;36494;50.730;-1.932;2023-09-12T00:13:33;12;11;
49644;PMS5003;36494;50.730;-1.932;2023-09-12T00:15:58;16;14;
49644;PMS5003;36494;50.730;-1.932;2023-09-12T00:18:24;11;11;
49644;PMS5003;36494;50.730;-1.932;2023-09-12T00:20:50;11;11;
49644;PMS5003;36494;50.730;-1.932;2023-09-12T00:23:15;14;14;
49644;PMS5003;36494;50.730;-1.932;2023-09-12T00:25:41;14;14;
49644;PMS5003;36494;50.730;-1.932;2023-09-12T00:28:07;14;14;
49644;PMS5003;36494;50.730;-1.932;2023-09-12T00:30:33;11;11;
49644;PMS5003;36494;50.730;-1.932;2023-09-12T00:32:58;12;12;
49644;PMS5003;36494;50.730;-1.932;2023-09-12T00:35:23;11;11;
49644;PMS5003;36494;50.730;-1.932;2023-09-12T00:37:49;15;13;
49644;PMS5003;36494;50.730;-1.932;2023-09-12T00:40:15;15;14;
49644;PMS5003;36494;50.730;-1.932;2023-09-12T00:42:41;15;13;
49644;PMS5003;36494;50.730;-1.932;2023-09-12T00:45:06;16;15;
49644;PMS5003;36494;50.730;-1.932;2023-09-12T00:47:31;13;12;
49644;PMS5003;36494;50.730;-1.932;2023-09-12T00:49:57;14;13;
49644;PMS5003;36494;50.730;-1.932;2023-09-12T00:52:22;14;14;
49644;PMS5003;36494;50.730;-1.932;2023-09-12T00:54:48;15;14;
49644;PMS5003;36494;50.730;-1.932;2023-09-12T00:57:13;13;13;
49644;PMS5003;36494;50.730;-1.932;2023-09-12T00:59:39;17;16;
49644;PMS5003;36494;50.730;-1.932;2023-09-12T01:02:04;11;11;
49644;PMS5003;36494;50.730;-1.932;2023-09-12T01:04:30;16;15;
49644;PMS5003;36494;50.730;-1.932;2023-09-12T01:06:56;13;12;
49644;PMS5003;36494;50.730;-1.932;2023-09-12T01:09:21;13;13;
49644;PMS5003;36494;50.730;-1.932;2023-09-12T01:11:47;13;13;
49644;PMS5003;36494;50.730;-1.932;2023-09-12T01:14:12;13;13;
49644;PMS5003;36494;50.730;-1.932;2023-09-12T01:16:38;12;11;
49644;PMS5003;36494;50.730;-1.932;2023-09-12T01:19:03;14;13;
49644;PMS5003;36494;50.730;-1.932;2023-09-12T01:21:38;17;16;
49644;PMS5003;36494;50.730;-1.932;2023-09-12T01:23:57;18;17;
49644;PMS5003;36494;50.730;-1.932;2023-09-12T01:26:25;14;14;
49644;PMS5003;36494;50.730;-1.932;2023-09-12T01:28:46;13;12;
49644;PMS5003;36494;50.730;-1.932;2023-09-12T01:31:12;15;15;
49644;PMS5003;36494;50.730;-1.932;2023-09-12T01:33:37;16;15;
49644;PMS5003;36494;50.730;-1.932;2023-09-12T01:36:02;14;13;
49644;PMS5003;36494;50.730;-1.932;2023-09-12T01:38:28;13;13;
49644;PMS5003;36494;50.730;-1.932;2023-09-12T01:40:53;12;12;
49644;PMS5003;36494;50.730;-1.932;2023-09-12T01:43:21;14;13;
49644;PMS5003;36494;50.730;-1.932;2023-09-12T01:45:45;11;10;
49644;PMS5003;36494;50.730;-1.932;2023-09-12T01:48:10;13;12;
49644;PMS5003;36494;50.730;-1.932;2023-09-12T01:50:36;12;12;
49644;PMS5003;36494;50.730;-1.932;2023-09-12T01:53:02;18;17;
49644;PMS5003;36494;50.730;-1.932;2023-09-12T01:55:28;15;14;
49644;PMS5003;36494;50.730;-1.932;2023-09-12T01:57:53;14;14;
49644;PMS5003;36494;50.730;-1.932;2023-09-12T02:00:18;15;14;
49644;PMS5003;36494;50.730;-1.932;2023-09-12T02:02:43;16;15;
49644;PMS5003;36494;50.730;-1.932;2023-09-12T02:05:10;16;16;
49644;PMS5003;36494;50.730;-1.932;2023-09-12T02:07:37;11;11;
49644;PMS5003;36494;50.730;-1.932;2023-09-12T02:10:01;14;13;
49644;PMS5003;36494;50.730;-1.932;2023-09-12T02:12:26;12;12;
49644;PMS5003;36494;50.730;-1.932;2023-09-12T02:14:52;14;14;
49644;PMS5003;36494;50.730;-1.932;2023-09-12T02:17:17;15;14;
49644;PMS5003;36494;50.730;-1.932;2023-09-12T02:19:43;14;14;
49644;PMS5003;36494;50.730;-1.932;2023-09-12T02:22:08;16;14;
49644;PMS5003;36494;50.730;-1.932;2023-09-12T02:24:34;15;15;
49644;PMS5003;36494;50.730;-1.932;2023-09-12T02:26:59;14;13;
49644;PMS5003;36494;50.730;-1.932;2023-09-12T02:29:24;12;11;
49644;PMS5003;36494;50.730;-1.932;2023-09-12T02:31:50;18;17;
49644;PMS5003;36494;50.730;-1.932;2023-09-12T02:34:15;18;16;
49644;PMS5003;36494;50.730;-1.932;2023-09-12T02:36:41;14;13;
49644;PMS5003;36494;50.730;-1.932;2023-09-12T02:39:06;20;19;
49644;PMS5003;36494;50.730;-1.932;2023-09-12T02:41:32;14;14;
49644;PMS5003;36494;50.730;-1.932;2023-09-12T02:43:57;16;15;
49644;PMS5003;36494;50.730;-1.932;2023-09-12T02:46:23;15;15;
49644;PMS5003;36494;50.730;-1.932;2023-09-12T02:48:49;16;15;
49644;PMS5003;36494;50.730;-1.932;2023-09-12T02:51:15;16;16;
49644;PMS5003;36494;50.730;-1.932;2023-09-12T02:53:40;19;19;
49644;PMS5003;36494;50.730;-1.932;2023-09-12T02:56:06;19;18;
49644;PMS5003;36494;50.730;-1.932;2023-09-12T02:58:31;15;14;
49644;PMS5003;36494;50.730;-1.932;2023-09-12T03:00:56;15;15;
49644;PMS5003;36494;50.730;-1.932;2023-09-12T03:03:22;16;16;
49644;PMS5003;36494;50.730;-1.932;2023-09-12T03:05:47;12;12;
49644;PMS5003;36494;50.730;-1.932;2023-09-12T03:08:13;14;14;
49644;PMS5003;36494;50.730;-1.932;2023-09-12T03:10:38;18;17;
49644;PMS5003;36494;50.730;-1.932;2023-09-12T03:13:04;16;15;
49644;PMS5003;36494;50.730;-1.932;2023-09-12T03:15:29;18;17;
49644;PMS5003;36494;50.730;-1.932;2023-09-12T03:17:54;16;15;
49644;PMS5003;36494;50.730;-1.932;2023-09-12T03:20:20;15;14;
49644;PMS5003;36494;50.730;-1.932;2023-09-12T03:22:46;15;14;
49644;PMS5003;36494;50.730;-1.932;2023-09-12T03:25:11;13;13;
49644;PMS5003;36494;50.730;-1.932;2023-09-12T03:27:37;17;16;
49644;PMS5003;36494;50.730;-1.932;2023-09-12T03:30:02;13;12;
49644;PMS5003;36494;50.730;-1.932;2023-09-12T03:32:27;14;13;
49644;PMS5003;36494;50.730;-1.932;2023-09-12T03:34:53;16;16;
49644;PMS5003;36494;50.730;-1.932;2023-09-12T03:37:19;17;17;
49644;PMS5003;36494;50.730;-1.932;2023-09-12T03:39:44;13;12;
49644;PMS5003;36494;50.730;-1.932;2023-09-12T03:42:09;15;15;
49644;PMS5003;36494;50.730;-1.932;2023-09-12T03:44:34;14;14;
49644;PMS5003;36494;50.730;-1.932;2023-09-12T03:47:00;12;12;
49644;PMS5003;36494;50.730;-1.932;2023-09-12T03:49:25;11;11;
49644;PMS5003;36494;50.730;-1.932;2023-09-12T03:51:51;15;15;
49644;PMS5003;36494;50.730;-1.932;2023-09-12T03:54:16;12;11;
49644;PMS5003;36494;50.730;-1.932;2023-09-12T03:56:42;15;14;
49644;PMS5003;36494;50.730;-1.932;2023-09-12T03:59:07;14;14;
49644;PMS5003;36494;50.730;-1.932;2023-09-12T04:01:32;15;14;
49644;PMS5003;36494;50.730;-1.932;2023-09-12T04:03:58;11;10;
49644;PMS5003;36494;50.730;-1.932;2023-09-12T04:06:23;16;15;
49644;PMS5003;36494;50.730;-1.932;2023-09-12T04:08:49;14;13;
49644;PMS5003;36494;50.730;-1.932;2023-09-12T04:11:14;15;13;
49644;PMS5003;36494;50.730;-1.932;2023-09-12T04:13:39;16;15;
49644;PMS5003;36494;50.730;-1.932;2023-09-12T04:16:05;14;12;
49644;PMS5003;36494;50.730;-1.932;2023-09-12T04:18:31;20;19;
49644;PMS5003;36494;50.730;-1.932;2023-09-12T04:20:56;14;14;
49644;PMS5003;36494;50.730;-1.932;2023-09-12T04:23:22;15;14;
49644;PMS5003;36494;50.730;-1.932;2023-09-12T04:25:47;15;13;
49644;PMS5003;36494;50.730;-1.932;2023-09-12T04:28:13;14;14;
49644;PMS5003;36494;50.730;-1.932;2023-09-12T04:30:39;16;16;
49644;PMS5003;36494;50.730;-1.932;2023-09-12T04:33:04;14;14;
49644;PMS5003;36494;50.730;-1.932;2023-09-12T04:35:32;17;16;
49644;PMS5003;36494;50.730;-1.932;2023-09-12T04:37:55;16;15;
49644;PMS5003;36494;50.730;-1.932;2023-09-12T04:40:21;16;16;
49644;PMS5003;36494;50.730;-1.932;2023-09-12T04:42:46;16;15;
49644;PMS5003;36494;50.730;-1.932;2023-09-12T04:45:12;20;19;
49644;PMS5003;36494;50.730;-1.932;2023-09-12T04:47:38;16;16;
49644;PMS5003;36494;50.730;-1.932;2023-09-12T04:50:04;18;17;
49644;PMS5003;36494;50.730;-1.932;2023-09-12T04:52:29;17;16;
49644;PMS5003;36494;50.730;-1.932;2023-09-12T04:54:54;18;17;
49644;PMS5003;36494;50.730;-1.932;2023-09-12T04:57:20;18;17;
49644;PMS5003;36494;50.730;-1.932;2023-09-12T04:59:45;17;16;
49644;PMS5003;36494;50.730;-1.932;2023-09-12T05:02:11;15;15;
49644;PMS5003;36494;50.730;-1.932;2023-09-12T05:04:37;19;18;
49644;PMS5003;36494;50.730;-1.932;2023-09-12T05:07:02;15;13;
49644;PMS5003;36494;50.730;-1.932;2023-09-12T05:09:27;14;14;
49644;PMS5003;36494;50.730;-1.932;2023-09-12T05:11:53;19;16;
49644;PMS5003;36494;50.730;-1.932;2023-09-12T05:14:18;16;15;
49644;PMS5003;36494;50.730;-1.932;2023-09-12T05:16:44;16;14;
49644;PMS5003;36494;50.730;-1.932;2023-09-12T05:19:09;17;16;
49644;PMS5003;36494;50.730;-1.932;2023-09-12T05:21:35;18;17;
49644;PMS5003;36494;50.730;-1.932;2023-09-12T05:24:00;18;17;
49644;PMS5003;36494;50.730;-1.932;2023-09-12T05:26:26;18;17;
49644;PMS5003;36494;50.730;-1.932;2023-09-12T05:28:52;20;18;
49644;PMS5003;36494;50.730;-1.932;2023-09-12T05:31:17;19;19;
49644;PMS5003;36494;50.730;-1.932;2023-09-12T05:33:43;14;13;
49644;PMS5003;36494;50.730;-1.932;2023-09-12T05:36:08;23;22;
49644;PMS5003;36494;50.730;-1.932;2023-09-12T05:38:34;16;15;
49644;PMS5003;36494;50.730;-1.932;2023-09-12T05:40:59;20;19;
49644;PMS5003;36494;50.730;-1.932;2023-09-12T05:43:25;18;17;
49644;PMS5003;36494;50.730;-1.932;2023-09-12T05:45:51;23;20;
49644;PMS5003;36494;50.730;-1.932;2023-09-12T05:48:16;20;18;
49644;PMS5003;36494;50.730;-1.932;2023-09-12T05:50:41;17;16;
49644;PMS5003;36494;50.730;-1.932;2023-09-12T05:53:07;18;17;
49644;PMS5003;36494;50.730;-1.932;2023-09-12T05:55:32;18;17;
49644;PMS5003;36494;50.730;-1.932;2023-09-12T05:57:57;19;19;
49644;PMS5003;36494;50.730;-1.932;2023-09-12T06:00:23;22;20;
49644;PMS5003;36494;50.730;-1.932;2023-09-12T06:02:48;19;19;
49644;PMS5003;36494;50.730;-1.932;2023-09-12T06:05:14;21;19;
49644;PMS5003;36494;50.730;-1.932;2023-09-12T06:07:39;19;19;
49644;PMS5003;36494;50.730;-1.932;2023-09-12T06:10:05;18;17;
49644;PMS5003;36494;50.730;-1.932;2023-09-12T06:12:30;22;20;
49644;PMS5003;36494;50.730;-1.932;2023-09-12T06:14:56;20;20;
49644;PMS5003;36494;50.730;-1.932;2023-09-12T06:17:22;22;20;
49644;PMS5003;36494;50.730;-1.932;2023-09-12T06:19:47;21;21;
49644;PMS5003;36494;50.730;-1.932;2023-09-12T06:22:13;22;22;
49644;PMS5003;36494;50.730;-1.932;2023-09-12T06:24:38;25;24;
49644;PMS5003;36494;50.730;-1.932;2023-09-12T06:27:04;24;24;
49644;PMS5003;36494;50.730;-1.932;2023-09-12T06:29:29;21;20;
49644;PMS5003;36494;50.730;-1.932;2023-09-12T06:31:54;20;19;
49644;PMS5003;36494;50.730;-1.932;2023-09-12T06:34:19;18;17;
49644;PMS5003;36494;50.730;-1.932;2023-09-12T06:36:45;22;21;
49644;PMS5003;36494;50.730;-1.932;2023-09-12T06:39:10;24;21;
49644;PMS5003;36494;50.730;-1.932;2023-09-12T06:41:36;24;22;
49644;PMS5003;36494;50.730;-1.932;2023-09-12T06:44:01;26;25;
49644;PMS5003;36494;50.730;-1.932;2023-09-12T06:46:27;27;26;
49644;PMS5003;36494;50.730;-1.932;2023-09-12T06:48:52;22;20;
49644;PMS5003;36494;50.730;-1.932;2023-09-12T06:51:18;25;23;
49644;PMS5003;36494;50.730;-1.932;2023-09-12T06:53:44;22;21;
49644;PMS5003;36494;50.730;-1.932;2023-09-12T06:56:09;29;27;
49644;PMS5003;36494;50.730;-1.932;2023-09-12T06:58:35;19;19;
49644;PMS5003;36494;50.730;-1.932;2023-09-12T07:01:01;21;20;
49644;PMS5003;36494;50.730;-1.932;2023-09-12T07:03:26;23;23;
49644;PMS5003;36494;50.730;-1.932;2023-09-12T07:05:52;23;20;
49644;PMS5003;36494;50.730;-1.932;2023-09-12T07:08:17;20;18;
49644;PMS5003;36494;50.730;-1.932;2023-09-12T07:10:44;22;21;
49644;PMS5003;36494;50.730;-1.932;2023-09-12T07:13:08;20;20;
49644;PMS5003;36494;50.730;-1.932;2023-09-12T07:15:35;20;19;
49644;PMS5003;36494;50.730;-1.932;2023-09-12T07:18:00;21;20;
49644;PMS5003;36494;50.730;-1.932;2023-09-12T07:20:25;19;18;
49644;PMS5003;36494;50.730;-1.932;2023-09-12T07:22:51;19;19;
49644;PMS5003;36494;50.730;-1.932;2023-09-12T07:25:16;22;21;
49644;PMS5003;36494;50.730;-1.932;2023-09-12T07:27:41;18;17;
49644;PMS5003;36494;50.730;-1.932;2023-09-12T07:30:07;24;23;
49644;PMS5003;36494;50.730;-1.932;2023-09-12T07:32:32;19;18;
49644;PMS5003;36494;50.730;-1.932;2023-09-12T07:34:57;21;21;
49644;PMS5003;36494;50.730;-1.932;2023-09-12T07:37:23;20;18;
49644;PMS5003;36494;50.730;-1.932;2023-09-12T07:39:48;19;16;
49644;PMS5003;36494;50.730;-1.932;2023-09-12T07:42:13;14;14;
49644;PMS5003;36494;50.730;-1.932;2023-09-12T07:44:39;18;18;
49644;PMS5003;36494;50.730;-1.932;2023-09-12T07:47:05;18;17;
49644;PMS5003;36494;50.730;-1.932;2023-09-12T07:49:30;22;20;
49644;PMS5003;36494;50.730;-1.932;2023-09-12T07:51:55;15;15;
49644;PMS5003;36494;50.730;-1.932;2023-09-12T07:54:20;12;12;
49644;PMS5003;36494;50.730;-1.932;2023-09-12T07:56:46;16;16;
49644;PMS5003;36494;50.730;-1.932;2023-09-12T07:59:11;18;18;
49644;PMS5003;36494;50.730;-1.932;2023-09-12T08:01:37;18;16;
49644;PMS5003;36494;50.730;-1.932;2023-09-12T08:04:03;14;13;
49644;PMS5003;36494;50.730;-1.932;2023-09-12T08:06:28;14;14;
49644;PMS5003;36494;50.730;-1.932;2023-09-12T08:08:54;13;13;
49644;PMS5003;36494;50.730;-1.932;2023-09-12T08:11:20;14;14;
49644;PMS5003;36494;50.730;-1.932;2023-09-12T08:13:48;16;16;
49644;PMS5003;36494;50.730;-1.932;2023-09-12T08:16:10;13;13;
49644;PMS5003;36494;50.730;-1.932;2023-09-12T08:18:35;13;11;
49644;PMS5003;36494;50.730;-1.932;2023-09-12T08:21:01;14;14;
49644;PMS5003;36494;50.730;-1.932;2023-09-12T08:23:26;12;11;
49644;PMS5003;36494;50.730;-1.932;2023-09-12T08:25:51;13;12;
49644;PMS5003;36494;50.730;-1.932;2023-09-12T08:28:17;12;12;
49644;PMS5003;36494;50.730;-1.932;2023-09-12T08:30:44;13;12;
49644;PMS5003;36494;50.730;-1.932;2023-09-12T08:33:07;11;11;
49644;PMS5003;36494;50.730;-1.932;2023-09-12T08:35:33;14;13;
49644;PMS5003;36494;50.730;-1.932;2023-09-12T08:37:58;16;15;
49644;PMS5003;36494;50.730;-1.932;2023-09-12T08:40:23;10;10;
49644;PMS5003;36494;50.730;-1.932;2023-09-12T08:42:48;12;12;
49644;PMS5003;36494;50.730;-1.932;2023-09-12T08:45:14;13;12;
49644;PMS5003;36494;50.730;-1.932;2023-09-12T08:47:40;14;13;
49644;PMS5003;36494;50.730;-1.932;2023-09-12T08:50:06;10;10;
49644;PMS5003;36494;50.730;-1.932;2023-09-12T08:52:31;11;11;
49644;PMS5003;36494;50.730;-1.932;2023-09-12T08:54:57;11;11;
49644;PMS5003;36494;50.730;-1.932;2023-09-12T08:57:22;10;10;
49644;PMS5003;36494;50.730;-1.932;2023-09-12T08:59:47;13;13;
49644;PMS5003;36494;50.730;-1.932;2023-09-12T09:02:12;12;11;
49644;PMS5003;36494;50.730;-1.932;2023-09-12T09:04:38;12;12;
49644;PMS5003;36494;50.730;-1.932;2023-09-12T09:07:03;11;10;
49644;PMS5003;36494;50.730;-1.932;2023-09-12T09:09:28;13;12;
49644;PMS5003;36494;50.730;-1.932;2023-09-12T09:11:54;13;12;
49644;PMS5003;36494;50.730;-1.932;2023-09-12T09:14:19;14;14;
49644;PMS5003;36494;50.730;-1.932;2023-09-12T09:16:44;12;11;
49644;PMS5003;36494;50.730;-1.932;2023-09-12T09:19:10;13;12;
49644;PMS5003;36494;50.730;-1.932;2023-09-12T09:21:36;11;11;
49644;PMS5003;36494;50.730;-1.932;2023-09-12T09:24:02;12;12;
49644;PMS5003;36494;50.730;-1.932;2023-09-12T09:29:01;9;9;
49644;PMS5003;36494;50.730;-1.932;2023-09-12T09:31:17;11;10;
49644;PMS5003;36494;50.730;-1.932;2023-09-12T09:33:42;10;9;
49644;PMS5003;36494;50.730;-1.932;2023-09-12T09:36:08;10;10;
49644;PMS5003;36494;50.730;-1.932;2023-09-12T09:38:34;9;8;
49644;PMS5003;36494;50.730;-1.932;2023-09-12T09:40:59;10;9;
49644;PMS5003;36494;50.730;-1.932;2023-09-12T09:43:24;11;11;
49644;PMS5003;36494;50.730;-1.932;2023-09-12T09:45:50;10;9;
49644;PMS5003;36494;50.730;-1.932;2023-09-12T09:48:17;10;10;
49644;PMS5003;36494;50.730;-1.932;2023-09-12T09:50:41;10;10;
49644;PMS5003;36494;50.730;-1.932;2023-09-12T09:53:06;13;12;
49644;PMS5003;36494;50.730;-1.932;2023-09-12T09:55:32;11;10;
49644;PMS5003;36494;50.730;-1.932;2023-09-12T09:57:57;7;7;
49644;PMS5003;36494;50.730;-1.932;2023-09-12T10:00:23;8;8;
49644;PMS5003;36494;50.730;-1.932;2023-09-12T10:02:48;7;7;
49644;PMS5003;36494;50.730;-1.932;2023-09-12T10:05:13;10;10;
49644;PMS5003;36494;50.730;-1.932;2023-09-12T10:07:38;9;8;
49644;PMS5003;36494;50.730;-1.932;2023-09-12T10:10:04;9;9;
49644;PMS5003;36494;50.730;-1.932;2023-09-12T10:12:29;13;10;
49644;PMS5003;36494;50.730;-1.932;2023-09-12T10:14:54;8;8;
49644;PMS5003;36494;50.730;-1.932;2023-09-12T10:17:19;8;8;
49644;PMS5003;36494;50.730;-1.932;2023-09-12T10:19:48;8;8;
49644;PMS5003;36494;50.730;-1.932;2023-09-12T10:22:12;9;9;
49644;PMS5003;36494;50.730;-1.932;2023-09-12T10:24:36;11;11;
49644;PMS5003;36494;50.730;-1.932;2023-09-12T10:27:01;9;8;
49644;PMS5003;36494;50.730;-1.932;2023-09-12T10:29:26;8;8;
49644;PMS5003;36494;50.730;-1.932;2023-09-12T10:31:52;8;7;
49644;PMS5003;36494;50.730;-1.932;2023-09-12T10:34:17;8;8;
49644;PMS5003;36494;50.730;-1.932;2023-09-12T10:36:43;8;6;
49644;PMS5003;36494;50.730;-1.932;2023-09-12T10:39:09;10;10;
49644;PMS5003;36494;50.730;-1.932;2023-09-12T10:41:35;12;12;
49644;PMS5003;36494;50.730;-1.932;2023-09-12T10:43:59;8;8;
49644;PMS5003;36494;50.730;-1.932;2023-09-12T10:46:24;9;7;
49644;PMS5003;36494;50.730;-1.932;2023-09-12T10:48:49;9;9;
49644;PMS5003;36494;50.730;-1.932;2023-09-12T10:51:15;5;5;
49644;PMS5003;36494;50.730;-1.932;2023-09-12T10:53:44;5;5;
49644;PMS5003;36494;50.730;-1.932;2023-09-12T10:58:30;4;4;
49644;PMS5003;36494;50.730;-1.932;2023-09-12T11:05:51;6;6;
49644;PMS5003;36494;50.730;-1.932;2023-09-12T11:08:11;5;5;
49644;PMS5003;36494;50.730;-1.932;2023-09-12T11:10:37;5;5;
49644;PMS5003;36494;50.730;-1.932;2023-09-12T11:13:02;5;5;
49644;PMS5003;36494;50.730;-1.932;2023-09-12T11:15:27;5;5;
49644;PMS5003;36494;50.730;-1.932;2023-09-12T11:20:18;5;5;
49644;PMS5003;36494;50.730;-1.932;2023-09-12T11:22:43;5;5;
49644;PMS5003;36494;50.730;-1.932;2023-09-12T11:25:17;6;5;
49644;PMS5003;36494;50.730;-1.932;2023-09-12T11:27:44;5;5;
49644;PMS5003;36494;50.730;-1.932;2023-09-12T11:30:03;6;5;
49644;PMS5003;36494;50.730;-1.932;2023-09-12T11:32:25;6;6;
49644;PMS5003;36494;50.730;-1.932;2023-09-12T11:34:49;7;5;
49644;PMS5003;36494;50.730;-1.932;2023-09-12T11:39:39;4;4;
49644;PMS5003;36494;50.730;-1.932;2023-09-12T11:42:05;6;6;
49644;PMS5003;36494;50.730;-1.932;2023-09-12T11:44:30;4;4;
49644;PMS5003;36494;50.730;-1.932;2023-09-12T11:46:55;4;4;
49644;PMS5003;36494;50.730;-1.932;2023-09-12T11:49:21;4;4;
49644;PMS5003;36494;50.730;-1.932;2023-09-12T11:51:47;5;5;
49644;PMS5003;36494;50.730;-1.932;2023-09-12T11:54:13;6;5;
49644;PMS5003;36494;50.730;-1.932;2023-09-12T11:56:36;7;7;
49644;PMS5003;36494;50.730;-1.932;2023-09-12T11:59:02;7;6;
49644;PMS5003;36494;50.730;-1.932;2023-09-12T12:01:27;5;5;
49644;PMS5003;36494;50.730;-1.932;2023-09-12T12:03:53;7;6;
49644;PMS5003;36494;50.730;-1.932;2023-09-12T12:06:18;7;7;
49644;PMS5003;36494;50.730;-1.932;2023-09-12T12:08:44;8;8;
49644;PMS5003;36494;50.730;-1.932;2023-09-12T12:11:09;7;7;
49644;PMS5003;36494;50.730;-1.932;2023-09-12T12:13:35;5;5;
49644;PMS5003;36494;50.730;-1.932;2023-09-12T12:16:00;5;5;
49644;PMS5003;36494;50.730;-1.932;2023-09-12T12:18:25;6;6;
49644;PMS5003;36494;50.730;-1.932;2023-09-12T12:20:50;8;8;
49644;PMS5003;36494;50.730;-1.932;2023-09-12T12:23:16;8;8;
49644;PMS5003;36494;50.730;-1.932;2023-09-12T12:25:41;8;7;
49644;PMS5003;36494;50.730;-1.932;2023-09-12T12:28:06;7;7;
49644;PMS5003;36494;50.730;-1.932;2023-09-12T12:30:32;6;6;
49644;PMS5003;36494;50.730;-1.932;2023-09-12T12:32:57;3;3;
49644;PMS5003;36494;50.730;-1.932;2023-09-12T12:35:23;5;5;
49644;PMS5003;36494;50.730;-1.932;2023-09-12T12:37:48;5;5;
49644;PMS5003;36494;50.730;-1.932;2023-09-12T12:40:13;4;4;
49644;PMS5003;36494;50.730;-1.932;2023-09-12T12:42:39;7;7;
49644;PMS5003;36494;50.730;-1.932;2023-09-12T12:45:06;7;7;
49644;PMS5003;36494;50.730;-1.932;2023-09-12T12:47:29;4;4;
49644;PMS5003;36494;50.730;-1.932;2023-09-12T12:49:54;4;4;
49644;PMS5003;36494;50.730;-1.932;2023-09-12T12:52:22;4;4;
49644;PMS5003;36494;50.730;-1.932;2023-09-12T12:54:44;4;4;
49644;PMS5003;36494;50.730;-1.932;2023-09-12T12:57:10;7;7;
49644;PMS5003;36494;50.730;-1.932;2023-09-12T12:59:35;5;5;
49644;PMS5003;36494;50.730;-1.932;2023-09-12T13:02:00;4;4;
49644;PMS5003;36494;50.730;-1.932;2023-09-12T13:04:25;7;6;
49644;PMS5003;36494;50.730;-1.932;2023-09-12T13:06:50;6;5;
49644;PMS5003;36494;50.730;-1.932;2023-09-12T13:09:16;6;5;
49644;PMS5003;36494;50.730;-1.932;2023-09-12T13:11:41;5;5;
49644;PMS5003;36494;50.730;-1.932;2023-09-12T13:14:07;6;5;
49644;PMS5003;36494;50.730;-1.932;2023-09-12T13:16:31;6;5;
49644;PMS5003;36494;50.730;-1.932;2023-09-12T13:18:56;3;3;
49644;PMS5003;36494;50.730;-1.932;2023-09-12T13:21:22;4;4;
49644;PMS5003;36494;50.730;-1.932;2023-09-12T13:23:47;5;5;
49644;PMS5003;36494;50.730;-1.932;2023-09-12T13:26:12;5;5;
49644;PMS5003;36494;50.730;-1.932;2023-09-12T13:28:37;5;4;
49644;PMS5003;36494;50.730;-1.932;2023-09-12T13:31:02;6;6;
49644;PMS5003;36494;50.730;-1.932;2023-09-12T13:33:28;5;5;
49644;PMS5003;36494;50.730;-1.932;2023-09-12T13:35:53;6;6;
49644;PMS5003;36494;50.730;-1.932;2023-09-12T13:38:18;6;6;
49644;PMS5003;36494;50.730;-1.932;2023-09-12T13:40:44;4;4;
49644;PMS5003;36494;50.730;-1.932;2023-09-12T13:43:08;3;3;
49644;PMS5003;36494;50.730;-1.932;2023-09-12T13:45:34;4;4;
49644;PMS5003;36494;50.730;-1.932;2023-09-12T13:47:59;3;3;
49644;PMS5003;36494;50.730;-1.932;2023-09-12T13:50:24;3;3;
49644;PMS5003;36494;50.730;-1.932;2023-09-12T13:52:49;4;4;
49644;PMS5003;36494;50.730;-1.932;2023-09-12T13:55:14;3;3;
49644;PMS5003;36494;50.730;-1.932;2023-09-12T13:57:40;2;2;
49644;PMS5003;36494;50.730;-1.932;2023-09-12T14:00:05;3;3;
49644;PMS5003;36494;50.730;-1.932;2023-09-12T14:02:30;3;3;
49644;PMS5003;36494;50.730;-1.932;2023-09-12T14:04:55;2;2;
49644;PMS5003;36494;50.730;-1.932;2023-09-12T14:07:20;4;4;
49644;PMS5003;36494;50.730;-1.932;2023-09-12T14:09:46;4;3;
49644;PMS5003;36494;50.730;-1.932;2023-09-12T14:12:11;3;3;
49644;PMS5003;36494;50.730;-1.932;2023-09-12T14:14:36;4;4;
49644;PMS5003;36494;50.730;-1.932;2023-09-12T14:17:01;3;3;
49644;PMS5003;36494;50.730;-1.932;2023-09-12T14:19:26;3;2;
49644;PMS5003;36494;50.730;-1.932;2023-09-12T14:21:52;2;2;
49644;PMS5003;36494;50.730;-1.932;2023-09-12T14:24:17;2;2;
49644;PMS5003;36494;50.730;-1.932;2023-09-12T14:26:42;2;2;
49644;PMS5003;36494;50.730;-1.932;2023-09-12T14:29:07;4;3;
49644;PMS5003;36494;50.730;-1.932;2023-09-12T14:31:32;6;6;
49644;PMS5003;36494;50.730;-1.932;2023-09-12T14:33:58;6;6;
49644;PMS5003;36494;50.730;-1.932;2023-09-12T14:36:23;2;2;
49644;PMS5003;36494;50.730;-1.932;2023-09-12T14:38:48;1;1;
49644;PMS5003;36494;50.730;-1.932;2023-09-12T14:41:13;5;4;
49644;PMS5003;36494;50.730;-1.932;2023-09-12T14:43:39;0;0;
49644;PMS5003;36494;50.730;-1.932;2023-09-12T14:46:04;1;1;
49644;PMS5003;36494;50.730;-1.932;2023-09-12T14:48:29;1;1;
49644;PMS5003;36494;50.730;-1.932;2023-09-12T14:50:55;0;0;
49644;PMS5003;36494;50.730;-1.932;2023-09-12T14:53:20;0;0;
49644;PMS5003;36494;50.730;-1.932;2023-09-12T14:55:45;0;0;
49644;PMS5003;36494;50.730;-1.932;2023-09-12T14:58:10;0;0;
49644;PMS5003;36494;50.730;-1.932;2023-09-12T15:00:35;0;0;
49644;PMS5003;36494;50.730;-1.932;2023-09-12T15:03:01;0;0;
49644;PMS5003;36494;50.730;-1.932;2023-09-12T15:05:26;0;0;
49644;PMS5003;36494;50.730;-1.932;2023-09-12T15:07:51;0;0;
49644;PMS5003;36494;50.730;-1.932;2023-09-12T15:10:16;1;1;
49644;PMS5003;36494;50.730;-1.932;2023-09-12T15:12:41;0;0;
49644;PMS5003;36494;50.730;-1.932;2023-09-12T15:15:07;1;1;
49644;PMS5003;36494;50.730;-1.932;2023-09-12T15:17:32;0;0;
49644;PMS5003;36494;50.730;-1.932;2023-09-12T15:19:57;0;0;
49644;PMS5003;36494;50.730;-1.932;2023-09-12T15:22:22;0;0;
49644;PMS5003;36494;50.730;-1.932;2023-09-12T15:24:48;1;1;
49644;PMS5003;36494;50.730;-1.932;2023-09-12T15:27:13;0;0;
49644;PMS5003;36494;50.730;-1.932;2023-09-12T15:29:38;0;0;
49644;PMS5003;36494;50.730;-1.932;2023-09-12T15:32:04;1;1;
49644;PMS5003;36494;50.730;-1.932;2023-09-12T15:34:29;0;0;
49644;PMS5003;36494;50.730;-1.932;2023-09-12T15:39:20;1;1;
49644;PMS5003;36494;50.730;-1.932;2023-09-12T15:41:45;1;1;
49644;PMS5003;36494;50.730;-1.932;2023-09-12T15:44:10;1;1;
49644;PMS5003;36494;50.730;-1.932;2023-09-12T15:46:35;1;1;
49644;PMS5003;36494;50.730;-1.932;2023-09-12T15:49:01;0;0;
49644;PMS5003;36494;50.730;-1.932;2023-09-12T15:51:26;1;1;
49644;PMS5003;36494;50.730;-1.932;2023-09-12T15:53:51;0;0;
49644;PMS5003;36494;50.730;-1.932;2023-09-12T15:56:16;1;1;
49644;PMS5003;36494;50.730;-1.932;2023-09-12T15:58:43;1;1;
49644;PMS5003;36494;50.730;-1.932;2023-09-12T16:01:07;1;1;
49644;PMS5003;36494;50.730;-1.932;2023-09-12T16:03:32;1;1;
49644;PMS5003;36494;50.730;-1.932;2023-09-12T16:05:57;0;0;
49644;PMS5003;36494;50.730;-1.932;2023-09-12T16:08:22;2;2;
49644;PMS5003;36494;50.730;-1.932;2023-09-12T16:10:48;2;2;
49644;PMS5003;36494;50.730;-1.932;2023-09-12T16:13:13;2;2;
49644;PMS5003;36494;50.730;-1.932;2023-09-12T16:15:38;0;0;
49644;PMS5003;36494;50.730;-1.932;2023-09-12T16:18:03;1;1;